createdAt,value
2023-01-17T09:49:49.770Z,5.90
2023-01-17T09:52:20.333Z,5.80
2023-01-17T09:54:49.674Z,5.80
2023-01-17T09:57:32.040Z,5.50
2023-01-17T10:00:08.728Z,5.40
2023-01-17T10:02:48.246Z,5.30
2023-01-17T10:05:44.271Z,5.60
2023-01-17T10:08:25.538Z,5.70
2023-01-17T10:11:05.048Z,5.20
2023-01-17T10:13:40.930Z,5.50
2023-01-17T10:16:20.336Z,5.10
2023-01-17T10:19:08.014Z,5.20
2023-01-17T10:21:54.511Z,5.70
2023-01-17T10:24:54.857Z,5.60
2023-01-17T10:27:25.986Z,6.20
2023-01-17T10:29:54.217Z,5.30
2023-01-17T10:32:24.369Z,6.30
2023-01-17T10:34:53.308Z,5.70
2023-01-17T10:37:26.343Z,5.50
2023-01-17T10:39:56.862Z,5.90
2023-01-17T10:42:29.227Z,5.20
2023-01-17T10:45:03.450Z,6.50
2023-01-17T10:50:04.576Z,5.60
2023-01-17T10:52:42.695Z,5.50
2023-01-17T10:55:23.401Z,6.40
2023-01-17T10:57:52.093Z,5.20
2023-01-17T11:00:33.807Z,5.30
2023-01-17T11:03:02.970Z,5.00
2023-01-17T11:05:32.577Z,5.90
2023-01-17T11:08:02.895Z,5.90
2023-01-17T11:10:39.140Z,5.80
2023-01-17T11:13:19.147Z,5.10
2023-01-17T11:15:50.874Z,6.50
2023-01-17T11:18:20.841Z,6.10
2023-01-17T11:20:49.536Z,4.80
2023-01-17T11:23:20.387Z,4.60
2023-01-17T11:25:54.793Z,5.40
2023-01-17T11:28:25.650Z,5.00
2023-01-17T11:30:56.556Z,5.30
2023-01-17T11:33:44.596Z,5.30
2023-01-17T11:36:18.370Z,5.10
2023-01-17T11:38:57.800Z,5.70
2023-01-17T11:41:27.549Z,5.70
2023-01-17T11:43:57.312Z,5.10
2023-01-17T11:46:27.592Z,5.70
2023-01-17T11:48:57.439Z,5.50
2023-01-17T11:51:28.598Z,5.50
2023-01-17T11:54:18.448Z,6.10
2023-01-17T11:56:46.714Z,5.50
2023-01-17T11:59:24.761Z,5.10
2023-01-17T12:02:12.439Z,5.60
2023-01-17T12:04:41.846Z,5.30
2023-01-17T12:07:22.983Z,6.00
2023-01-17T12:09:59.928Z,4.40
2023-01-17T12:13:01.177Z,6.10
2023-01-17T12:15:39.345Z,5.10
2023-01-17T12:18:21.341Z,7.20
2023-01-17T12:20:55.150Z,5.90
2023-01-17T12:23:36.048Z,6.50
2023-01-17T12:26:12.412Z,6.00
2023-01-17T12:28:58.862Z,5.70
2023-01-17T12:33:58.231Z,6.00
2023-01-17T12:36:35.728Z,6.20
2023-01-17T12:39:09.544Z,6.10
2023-01-17T12:41:48.049Z,5.10
2023-01-17T12:44:18.055Z,6.70
2023-01-17T12:46:50.688Z,5.80
2023-01-17T12:49:23.985Z,5.00
2023-01-17T12:51:55.554Z,5.10
2023-01-17T12:54:29.183Z,4.80
2023-01-17T12:57:02.100Z,5.20
2023-01-17T12:59:35.005Z,5.80
2023-01-17T13:02:13.636Z,6.70
2023-01-17T13:04:58.042Z,5.20
2023-01-17T13:07:35.338Z,6.50
2023-01-17T13:10:11.495Z,8.00
2023-01-17T13:12:39.980Z,4.80
2023-01-17T13:15:15.392Z,5.10
2023-01-17T13:17:46.459Z,6.30
2023-01-17T13:20:22.020Z,5.50
2023-01-17T13:22:51.316Z,5.80
2023-01-17T13:25:32.411Z,4.80
2023-01-17T13:28:10.466Z,6.60
2023-01-17T13:31:18.902Z,5.40
2023-01-17T13:33:59.286Z,6.30
2023-01-17T13:39:22.056Z,5.60
2023-01-17T13:41:54.135Z,4.70
2023-01-17T13:44:25.848Z,6.50
2023-01-17T13:47:00.169Z,5.50
2023-01-17T13:49:43.393Z,5.70
2023-01-17T13:52:33.090Z,4.90
2023-01-17T13:55:03.422Z,6.00
2023-01-17T13:57:42.891Z,5.30
2023-01-17T14:00:50.101Z,6.20
2023-01-17T14:03:50.482Z,7.10
2023-01-17T14:06:43.666Z,5.10
2023-01-17T14:09:20.692Z,4.90
2023-01-17T14:12:00.690Z,6.70
2023-01-17T14:14:51.391Z,6.60
2023-01-17T14:17:51.088Z,5.40
2023-01-17T14:20:44.963Z,5.20
2023-01-17T14:23:26.057Z,5.90
2023-01-17T14:25:54.275Z,5.50
2023-01-17T14:28:29.072Z,5.00
2023-01-17T14:30:59.512Z,6.90
2023-01-17T14:33:29.832Z,6.10
2023-01-17T14:35:58.930Z,6.90
2023-01-17T14:38:29.272Z,4.50
2023-01-17T14:40:59.089Z,5.30
2023-01-17T14:43:28.784Z,7.30
2023-01-17T14:45:58.647Z,5.70
2023-01-17T14:48:27.159Z,6.50
2023-01-17T14:50:59.326Z,6.50
2023-01-17T14:53:28.748Z,7.60
2023-01-17T14:55:59.741Z,7.30
2023-01-17T14:58:29.721Z,5.60
2023-01-17T15:01:00.361Z,6.80
2023-01-17T15:03:30.259Z,5.80
2023-01-17T15:06:11.247Z,7.20
2023-01-17T15:08:39.724Z,6.40
2023-01-17T15:11:10.635Z,6.60
2023-01-17T15:13:44.573Z,5.30
2023-01-17T15:16:22.116Z,5.50
2023-01-17T15:18:51.260Z,6.10
2023-01-17T15:21:20.819Z,6.30
2023-01-17T15:23:51.710Z,6.10
2023-01-17T15:26:21.105Z,6.80
2023-01-17T15:28:49.386Z,5.90
2023-01-17T15:31:21.553Z,6.40
2023-01-17T15:33:53.940Z,6.20
2023-01-17T15:36:29.403Z,7.90
2023-01-17T15:38:59.773Z,6.90
2023-01-17T15:41:30.911Z,6.20
2023-01-17T15:43:59.604Z,8.40
2023-01-17T15:46:38.218Z,6.40
2023-01-17T15:49:13.235Z,6.80
2023-01-17T15:51:47.568Z,7.40
2023-01-17T15:57:03.875Z,7.70
2023-01-17T15:59:44.812Z,8.20
2023-01-17T16:02:43.491Z,7.70
2023-01-17T16:05:45.313Z,7.30
2023-01-17T16:08:31.574Z,9.00
2023-01-17T16:11:01.744Z,7.60
2023-01-17T16:13:31.593Z,7.60
2023-01-17T16:16:21.456Z,9.00
2023-01-17T16:18:52.233Z,8.50
2023-01-17T16:21:24.045Z,11.50
2023-01-17T16:23:52.547Z,12.70
2023-01-17T16:26:21.159Z,8.90
2023-01-17T16:28:49.443Z,10.50
2023-01-17T16:31:18.193Z,11.20
2023-01-17T16:33:49.970Z,9.00
2023-01-17T16:36:20.179Z,12.60
2023-01-17T16:38:50.272Z,8.80
2023-01-17T16:41:19.287Z,9.10
2023-01-17T16:43:57.436Z,9.90
2023-01-17T16:46:25.839Z,10.20
2023-01-17T16:48:54.079Z,13.20
2023-01-17T16:51:22.410Z,10.90
2023-01-17T16:53:50.618Z,11.20
2023-01-17T16:56:19.632Z,12.10
2023-01-17T16:58:47.859Z,13.30
2023-01-17T17:01:20.256Z,13.60
2023-01-17T17:03:48.896Z,12.70
2023-01-17T17:06:17.108Z,12.50
2023-01-17T17:08:45.363Z,13.00
2023-01-17T17:11:15.812Z,13.40
2023-01-17T17:13:45.626Z,11.90
2023-01-17T17:16:16.848Z,15.20
2023-01-17T17:18:46.445Z,12.50
2023-01-17T17:21:14.757Z,13.70
2023-01-17T17:23:42.976Z,16.50
2023-01-17T17:28:38.496Z,18.20
2023-01-17T17:33:36.223Z,16.10
2023-01-17T17:36:06.845Z,16.70
2023-01-17T17:38:35.087Z,16.00
2023-01-17T17:41:09.054Z,16.90
2023-01-17T17:43:39.856Z,17.80
2023-01-17T17:46:08.657Z,15.80
2023-01-17T17:48:37.287Z,18.30
2023-01-17T17:51:06.316Z,21.10
2023-01-17T17:53:34.557Z,18.50
2023-01-17T17:56:07.053Z,21.50
2023-01-17T17:58:35.747Z,19.20
2023-01-17T18:01:05.842Z,19.80
2023-01-17T18:03:34.034Z,21.70
2023-01-17T18:06:04.001Z,21.40
2023-01-17T18:08:33.553Z,17.50
2023-01-17T18:11:03.225Z,17.90
2023-01-17T18:13:32.856Z,21.40
2023-01-17T18:16:04.777Z,20.30
2023-01-17T18:18:33.110Z,21.60
2023-01-17T18:21:09.427Z,21.90
2023-01-17T18:23:39.368Z,22.90
2023-01-17T18:26:15.605Z,19.30
2023-01-17T18:28:44.027Z,21.40
2023-01-17T18:31:12.550Z,22.10
2023-01-17T18:33:41.140Z,21.20
2023-01-17T18:36:10.948Z,22.00
2023-01-17T18:38:40.348Z,22.50
2023-01-17T18:41:10.859Z,20.20
2023-01-17T18:43:39.479Z,21.40
2023-01-17T18:46:08.857Z,19.90
2023-01-17T18:48:37.916Z,20.90
2023-01-17T18:51:08.248Z,20.80
2023-01-17T18:53:37.743Z,22.60
2023-01-17T18:56:08.938Z,21.70
2023-01-17T18:58:38.727Z,20.20
2023-01-17T19:01:09.454Z,22.50
2023-01-17T19:03:39.066Z,21.50
2023-01-17T19:06:10.102Z,23.70
2023-01-17T19:08:38.995Z,20.10
2023-01-17T19:11:07.756Z,21.80
2023-01-17T19:13:37.259Z,23.10
2023-01-17T19:16:08.911Z,21.90
2023-01-17T19:18:37.208Z,21.20
2023-01-17T19:21:06.878Z,23.30
2023-01-17T19:23:36.474Z,20.40
2023-01-17T19:26:07.565Z,21.60
2023-01-17T19:28:37.888Z,20.30
2023-01-17T19:31:07.725Z,19.60
2023-01-17T19:33:37.529Z,20.90
2023-01-17T19:36:08.558Z,23.90
2023-01-17T19:38:37.620Z,22.30
2023-01-17T19:41:10.611Z,20.10
2023-01-17T19:43:40.275Z,19.20
2023-01-17T19:46:09.086Z,19.30
2023-01-17T19:48:38.456Z,20.30
2023-01-17T19:51:09.224Z,20.30
2023-01-17T19:53:38.139Z,20.30
2023-01-17T19:56:08.921Z,20.50
2023-01-17T19:58:37.579Z,18.50
2023-01-17T20:01:07.774Z,25.50
2023-01-17T20:03:36.609Z,18.40
2023-01-17T20:06:05.842Z,17.90
2023-01-17T20:08:34.185Z,19.80
2023-01-17T20:22:30.584Z,30.00
2023-01-17T20:25:02.698Z,33.60
2023-01-17T20:27:35.380Z,33.50
2023-01-17T20:30:19.837Z,34.10
2023-01-17T20:32:53.108Z,34.40
2023-01-17T20:35:25.907Z,33.90
2023-01-17T20:37:58.760Z,36.00
2023-01-17T20:40:31.819Z,38.10
2023-01-17T20:43:04.086Z,31.60
2023-01-17T20:45:36.434Z,34.10
2023-01-17T20:48:09.050Z,34.90
2023-01-17T20:50:41.416Z,36.00
2023-01-17T20:53:14.083Z,34.60
2023-01-17T20:55:46.579Z,32.90
2023-01-17T20:58:18.966Z,36.20
2023-01-17T21:00:52.551Z,35.50
2023-01-17T21:03:29.117Z,37.10
2023-01-17T21:06:05.603Z,40.20
2023-01-17T21:08:39.491Z,30.50
2023-01-17T21:11:13.781Z,34.20
2023-01-17T21:13:48.914Z,36.40
2023-01-17T21:16:23.045Z,37.80
2023-01-17T21:18:55.512Z,42.00
2023-01-17T21:21:29.234Z,37.80
2023-01-17T21:24:02.135Z,39.80
2023-01-17T21:26:35.092Z,43.50
2023-01-17T21:29:07.460Z,39.00
2023-01-17T21:31:42.792Z,39.90
2023-01-17T21:34:15.541Z,42.10
2023-01-17T21:36:47.795Z,43.80
2023-01-17T21:39:20.716Z,44.30
2023-01-17T21:41:53.670Z,48.40
2023-01-17T21:44:26.898Z,43.80
2023-01-17T21:47:00.022Z,48.20
2023-01-17T21:49:32.667Z,45.20
2023-01-17T21:52:20.467Z,42.00
2023-01-17T21:55:10.540Z,39.70
2023-01-17T21:58:00.654Z,41.10
2023-01-17T22:00:32.907Z,43.80
2023-01-17T22:03:05.331Z,47.30
2023-01-17T22:05:37.804Z,43.50
2023-01-17T22:08:12.972Z,43.90
2023-01-17T22:10:48.218Z,46.60
2023-01-17T22:13:21.077Z,39.30
2023-01-17T22:16:02.659Z,51.00
2023-01-17T22:18:37.332Z,44.90
2023-01-17T22:21:12.056Z,45.80
2023-01-17T22:23:49.178Z,45.10
2023-01-17T22:26:22.239Z,48.60
2023-01-17T22:28:56.087Z,48.10
2023-01-17T22:31:29.784Z,43.40
2023-01-17T22:34:03.655Z,49.20
2023-01-17T22:36:37.619Z,47.90
2023-01-17T22:39:10.632Z,45.20
2023-01-17T22:41:42.860Z,51.80
2023-01-17T22:44:15.214Z,44.10
2023-01-17T22:46:48.277Z,46.70
2023-01-17T22:49:23.515Z,48.00
2023-01-17T22:51:55.730Z,47.60
2023-01-17T22:54:28.166Z,43.80
2023-01-17T22:57:00.401Z,47.80
2023-01-17T22:59:34.055Z,49.90
2023-01-17T23:02:06.532Z,46.60
2023-01-17T23:04:38.763Z,56.70
2023-01-17T23:07:10.957Z,51.90
2023-01-17T23:09:43.133Z,48.50
2023-01-17T23:12:15.285Z,46.40
2023-01-17T23:15:05.501Z,44.60
2023-01-17T23:17:55.720Z,48.90
2023-01-17T23:20:27.958Z,45.80
2023-01-17T23:23:00.559Z,46.00
2023-01-17T23:25:32.917Z,45.10
2023-01-17T23:28:20.888Z,44.00
2023-01-17T23:30:53.375Z,47.90
2023-01-17T23:33:25.848Z,42.90
2023-01-17T23:35:58.206Z,37.70
2023-01-17T23:38:30.633Z,41.50
2023-01-17T23:41:25.311Z,41.00
2023-01-17T23:43:59.141Z,40.80
2023-01-17T23:46:31.443Z,49.10
2023-01-17T23:49:03.859Z,39.80
2023-01-17T23:51:36.153Z,50.80
2023-01-17T23:54:08.441Z,47.50
2023-01-17T23:56:40.611Z,48.60
2023-01-17T23:59:12.949Z,43.20
